LEJR/XRY METAR and TAF weather

Enter ICAO airport designator
Station Type Date Time Source
LEJR METAR 2019/10/18 11:30 UTC NOAA

LEJR 181130Z 32004KT 230V040 9999 SCT025 SCT039 24/16 Q1019


Station Type Date Time Source
LEJR Decoded METAR 2019/10/18 11:30 UTC NOAA

Jerez De La Fronteraaeropuerto, Spain (LEJR) 36-45N 006-04W 28M
Oct 18, 2019 - 07:30 AM EDT / 2019.10.18 1130 UTC
Wind: from the NW (320 degrees) at 5 MPH (4 KT) (direction variable):0
Visibility: greater than 7 mile(s):0
Sky conditions: partly cloudy
Temperature: 75 F (24 C)
Dew Point: 60 F (16 C)
Relative Humidity: 60%
Pressure (altimeter): 30.09 in. Hg (1019 hPa)
ob: LEJR 181130Z 32004KT 230V040 9999 SCT025 SCT039 24/16 Q1019
cycle: 11

Station Type Date Time Source
LEJR TAF 2019/10/18 12:27 UTC NOAA

TAF LEJR 181100Z 1812/1912 26008KT 9999 SCT030 TX26/1814Z TN12/1906Z PROB30
TEMPO 1821/1906 4000 BR

Example: see airport list